createdAt,value
2022-12-19T00:15:02.381Z,1028.15
2022-12-19T00:43:24.224Z,1027.92
2022-12-19T01:11:40.638Z,1027.71
2022-12-19T01:39:58.543Z,1027.58
2022-12-19T02:08:17.336Z,1027.62
2022-12-19T02:36:25.260Z,1027.77
2022-12-19T03:04:33.476Z,1027.61
2022-12-19T03:32:55.110Z,1027.32
2022-12-19T04:00:59.727Z,1027.21
2022-12-19T04:29:06.224Z,1027.21
2022-12-19T04:57:29.216Z,1027.17
2022-12-19T05:25:49.007Z,1027.07
2022-12-19T05:53:55.546Z,1027.05
2022-12-19T06:22:17.441Z,1026.92
2022-12-19T06:50:34.975Z,1026.89
2022-12-19T07:18:46.018Z,1027.03
2022-12-19T07:47:15.571Z,1027.34
2022-12-19T08:15:24.620Z,1027.17
2022-12-19T08:43:46.369Z,1026.84
2022-12-19T09:12:06.579Z,1026.83
2022-12-19T09:40:25.009Z,1026.8
2022-12-19T10:09:22.766Z,1026.46
2022-12-19T10:37:17.978Z,1026.31
2022-12-19T11:05:07.202Z,1025.86
2022-12-19T11:33:23.088Z,1025.69
2022-12-19T12:01:44.324Z,1025.15
2022-12-19T12:31:34.697Z,1024.98
2022-12-19T12:58:24.432Z,1025.06
2022-12-19T13:26:34.649Z,1025.04
2022-12-19T13:54:52.824Z,1025.07
2022-12-19T14:23:57.273Z,1025.07
2022-12-19T14:54:19.380Z,1024.66
2022-12-19T15:21:18.039Z,1024.67
2022-12-19T15:50:06.906Z,1024.57
2022-12-19T16:18:58.781Z,1024.25
2022-12-19T16:47:26.822Z,1024.55
2022-12-19T17:15:57.707Z,1025.16
2022-12-19T17:43:58.078Z,1024.71
2022-12-19T18:12:40.877Z,1024.47
2022-12-19T18:41:37.400Z,1024.29
2022-12-19T19:10:25.264Z,1024.41
2022-12-19T19:39:25.629Z,1024.3
2022-12-19T20:08:19.861Z,1024.01
2022-12-19T20:37:16.465Z,1024.13
2022-12-19T21:06:29.816Z,1024.14
2022-12-19T21:35:08.265Z,1024.34
2022-12-19T22:04:01.879Z,1024.31
2022-12-19T22:32:43.526Z,1024.12
2022-12-19T23:01:40.846Z,1024.17
2022-12-19T23:30:33.323Z,1024.15
2022-12-19T23:59:22.784Z,1023.75
